createdAt,value
2023-04-09T00:01:14.856Z,6.9
2023-04-09T00:04:03.181Z,6.8
2023-04-09T00:06:51.141Z,6.8
2023-04-09T00:09:39.052Z,6.7
2023-04-09T00:12:26.828Z,6.7
2023-04-09T00:15:24.290Z,6.7
2023-04-09T00:18:19.818Z,6.6
2023-04-09T00:21:07.447Z,6.6
2023-04-09T00:23:55.252Z,6.5
2023-04-09T00:26:43.130Z,6.5
2023-04-09T00:29:30.915Z,6.5
2023-04-09T00:32:19.102Z,6.4
2023-04-09T00:35:06.856Z,6.4
2023-04-09T00:37:54.726Z,6.4
2023-04-09T00:40:42.235Z,6.4
2023-04-09T00:43:29.854Z,6.4
2023-04-09T00:46:17.652Z,6.4
2023-04-09T00:49:05.678Z,6.4
2023-04-09T00:51:53.384Z,6.4
2023-04-09T00:54:41.263Z,6.4
2023-04-09T00:57:29.148Z,6.4
2023-04-09T01:00:16.893Z,6.4
2023-04-09T01:03:05.227Z,6.4
2023-04-09T01:05:53.264Z,6.4
2023-04-09T01:08:40.905Z,6.3
2023-04-09T01:11:28.631Z,6.3
2023-04-09T01:14:16.408Z,6.2
2023-04-09T01:17:04.188Z,6.2
2023-04-09T01:19:51.947Z,6.1
2023-04-09T01:22:39.732Z,6.1
2023-04-09T01:25:27.544Z,6.1
2023-04-09T01:28:15.322Z,6
2023-04-09T01:31:03.078Z,6
2023-04-09T01:33:50.940Z,5.9
2023-04-09T01:36:38.810Z,5.9
2023-04-09T01:39:26.720Z,5.8
2023-04-09T01:42:14.394Z,5.8
2023-04-09T01:45:02.234Z,5.8
2023-04-09T01:47:50.155Z,5.7
2023-04-09T01:50:38.102Z,5.7
2023-04-09T01:53:25.913Z,5.7
2023-04-09T01:56:13.599Z,5.7
2023-04-09T01:59:01.182Z,5.6
2023-04-09T02:01:49.099Z,5.6
2023-04-09T02:04:37.225Z,5.6
2023-04-09T02:07:25.160Z,5.5
2023-04-09T02:10:12.918Z,5.5
2023-04-09T02:13:00.573Z,5.5
2023-04-09T02:15:48.211Z,5.5
2023-04-09T02:18:36.452Z,5.5
2023-04-09T02:21:24.181Z,5.5
2023-04-09T02:24:12.177Z,5.5
2023-04-09T02:27:00.156Z,5.6
2023-04-09T02:29:48.037Z,5.6
2023-04-09T02:32:35.669Z,5.6
2023-04-09T02:35:23.714Z,5.6
2023-04-09T02:38:11.388Z,5.6
2023-04-09T02:40:59.274Z,5.6
2023-04-09T02:43:47.084Z,5.5
2023-04-09T02:46:34.960Z,5.5
2023-04-09T02:49:22.934Z,5.5
2023-04-09T02:52:10.820Z,5.4
2023-04-09T02:54:58.768Z,5.3
2023-04-09T02:57:46.496Z,5.3
2023-04-09T03:00:34.350Z,5.3
2023-04-09T03:03:22.954Z,5.1
2023-04-09T03:06:11.022Z,5.1
2023-04-09T03:08:58.701Z,5
2023-04-09T03:11:46.282Z,5
2023-04-09T03:14:35.240Z,5
2023-04-09T03:17:23.043Z,4.9
2023-04-09T03:20:11.060Z,4.8
2023-04-09T03:22:58.693Z,4.7
2023-04-09T03:25:46.629Z,4.7
2023-04-09T03:28:34.271Z,4.7
2023-04-09T03:31:22.211Z,4.7
2023-04-09T03:34:10.469Z,4.5
2023-04-09T03:36:58.427Z,4.5
2023-04-09T03:39:46.155Z,4.5
2023-04-09T03:42:34.040Z,4.5
2023-04-09T03:45:21.729Z,4.4
2023-04-09T03:48:09.457Z,4.4
2023-04-09T03:50:57.394Z,4.3
2023-04-09T03:53:45.326Z,4.3
2023-04-09T03:56:33.007Z,4.3
2023-04-09T03:59:21.205Z,4.2
2023-04-09T04:02:09.062Z,4.2
2023-04-09T04:04:57.428Z,4.2
2023-04-09T04:07:45.258Z,4.2
2023-04-09T04:10:33.147Z,4.1
2023-04-09T04:13:20.889Z,4.1
2023-04-09T04:16:08.997Z,4.1
2023-04-09T04:18:56.857Z,4.1
2023-04-09T04:21:44.692Z,4.1
2023-04-09T04:24:32.611Z,4
2023-04-09T04:27:20.361Z,4
2023-04-09T04:30:07.994Z,4
2023-04-09T04:32:55.953Z,4
2023-04-09T04:35:43.761Z,3.9
2023-04-09T04:38:31.696Z,3.9
2023-04-09T04:41:19.457Z,3.9
2023-04-09T04:44:07.419Z,3.9
2023-04-09T04:46:55.507Z,3.8
2023-04-09T04:49:43.402Z,3.8
2023-04-09T04:52:31.225Z,3.7
2023-04-09T04:55:19.059Z,3.7
2023-04-09T04:58:07.137Z,3.7
2023-04-09T05:00:54.960Z,3.7
2023-04-09T05:03:43.192Z,3.6
2023-04-09T05:06:31.012Z,3.6
2023-04-09T05:09:21.255Z,3.6
2023-04-09T05:12:10.078Z,3.6
2023-04-09T05:14:57.918Z,3.6
2023-04-09T05:17:45.733Z,3.6
2023-04-09T05:20:33.513Z,3.6
2023-04-09T05:23:21.496Z,3.6
2023-04-09T05:26:09.182Z,3.7
2023-04-09T05:28:56.910Z,3.7
2023-04-09T05:31:44.724Z,3.8
2023-04-09T05:34:32.733Z,3.9
2023-04-09T05:37:20.517Z,3.9
2023-04-09T05:40:08.268Z,3.9
2023-04-09T05:42:56.094Z,4
2023-04-09T05:45:43.950Z,4
2023-04-09T05:48:32.041Z,4.1
2023-04-09T05:51:23.430Z,4.2
2023-04-09T05:54:11.345Z,4.3
2023-04-09T05:56:59.200Z,4.4
2023-04-09T05:59:47.000Z,4.5
2023-04-09T06:02:34.910Z,4.6
2023-04-09T06:05:23.105Z,4.7
2023-04-09T06:08:11.577Z,4.8
2023-04-09T06:10:59.677Z,5
2023-04-09T06:13:47.498Z,5.1
2023-04-09T06:16:35.940Z,5.5
2023-04-09T06:19:23.832Z,6.2
2023-04-09T06:22:11.692Z,7.2
2023-04-09T06:24:59.761Z,8.7
2023-04-09T06:27:47.483Z,10.1
2023-04-09T06:30:35.412Z,11.4
2023-04-09T06:33:23.943Z,12.5
2023-04-09T06:36:12.352Z,13.3
2023-04-09T06:39:00.175Z,13.9
2023-04-09T06:41:48.093Z,14.6
2023-04-09T06:44:35.796Z,15.3
2023-04-09T06:47:23.563Z,16
2023-04-09T06:50:11.627Z,16.6
2023-04-09T06:52:59.638Z,17.1
2023-04-09T06:55:47.365Z,17.4
2023-04-09T06:58:35.239Z,18
2023-04-09T07:01:23.132Z,18.8
2023-04-09T07:04:11.600Z,19.4
2023-04-09T07:06:59.944Z,19.5
2023-04-09T07:09:47.813Z,19.4
2023-04-09T07:12:35.654Z,19.8
2023-04-09T07:15:23.528Z,20.3
2023-04-09T07:18:11.359Z,20.5
2023-04-09T07:20:59.478Z,20.9
2023-04-09T07:23:47.390Z,21.4
2023-04-09T07:26:35.197Z,21.9
2023-04-09T07:29:23.082Z,22.1
2023-04-09T07:32:10.791Z,22.3
2023-04-09T07:34:58.577Z,22
2023-04-09T07:37:46.361Z,22.1
2023-04-09T07:40:34.221Z,22.4
2023-04-09T07:43:22.649Z,22.6
2023-04-09T07:46:10.801Z,22.5
2023-04-09T07:48:58.668Z,22.5
2023-04-09T07:51:46.368Z,22.4
2023-04-09T07:54:34.098Z,22.2
2023-04-09T07:57:21.837Z,21.5
2023-04-09T08:00:09.448Z,20.8
2023-04-09T08:02:57.823Z,20.3
2023-04-09T08:05:46.188Z,19.9
2023-04-09T08:08:33.916Z,20
2023-04-09T08:11:21.498Z,20.5
2023-04-09T08:14:09.236Z,20.5
2023-04-09T08:16:57.163Z,20.4
2023-04-09T08:19:45.177Z,20.8
2023-04-09T08:22:32.932Z,21
2023-04-09T08:25:20.571Z,20.9
2023-04-09T08:28:08.200Z,20.7
2023-04-09T08:30:55.934Z,21.2
2023-04-09T08:33:43.555Z,21.1
2023-04-09T08:36:31.864Z,20.9
2023-04-09T08:39:20.216Z,20.5
2023-04-09T08:42:08.036Z,20.5
2023-04-09T08:44:55.815Z,20.7
2023-04-09T08:47:43.619Z,21.1
2023-04-09T08:50:31.593Z,21.5
2023-04-09T08:53:19.443Z,21.6
2023-04-09T08:56:07.268Z,21.7
2023-04-09T08:58:55.251Z,21.9
2023-04-09T09:01:43.917Z,22.2
2023-04-09T09:04:31.925Z,22.3
2023-04-09T09:07:19.652Z,22.3
2023-04-09T09:10:07.526Z,21.5
2023-04-09T09:12:55.435Z,21
2023-04-09T09:15:43.136Z,20.8
2023-04-09T09:18:30.977Z,20.6
2023-04-09T09:21:18.579Z,20.8
2023-04-09T09:24:06.158Z,20.8
2023-04-09T09:26:53.820Z,20.7
2023-04-09T09:29:41.628Z,20.4
2023-04-09T09:32:29.311Z,20.6
2023-04-09T09:35:16.906Z,21.1
2023-04-09T09:38:04.725Z,21.2
2023-04-09T09:40:52.421Z,20.5
2023-04-09T09:43:42.765Z,20
2023-04-09T09:46:30.677Z,19.9
2023-04-09T09:49:19.155Z,19
2023-04-09T09:52:06.753Z,18.7
2023-04-09T09:54:54.283Z,18.3
2023-04-09T09:57:41.969Z,18
2023-04-09T10:00:30.085Z,18.1
2023-04-09T10:03:17.869Z,18.7
2023-04-09T10:06:05.741Z,19.2
2023-04-09T10:08:53.318Z,19.5
2023-04-09T10:11:41.443Z,20
2023-04-09T10:14:28.949Z,20.1
2023-04-09T10:17:16.602Z,20.4
2023-04-09T10:20:04.232Z,20.4
2023-04-09T10:22:52.013Z,20.5
2023-04-09T10:25:39.693Z,20.5
2023-04-09T10:28:27.423Z,20.5
2023-04-09T10:31:15.107Z,20.6
2023-04-09T10:34:03.022Z,20.7
2023-04-09T10:36:50.773Z,20.3
2023-04-09T10:39:38.456Z,19.9
2023-04-09T10:42:26.085Z,20.1
2023-04-09T10:45:13.624Z,20.8
2023-04-09T10:48:01.479Z,21.5
2023-04-09T10:50:49.576Z,21.2
2023-04-09T10:53:37.378Z,20.3
2023-04-09T10:56:24.990Z,20
2023-04-09T10:59:12.535Z,20.3
2023-04-09T11:02:00.378Z,20.3
2023-04-09T11:04:48.306Z,20
2023-04-09T11:07:36.290Z,19.9
2023-04-09T11:10:23.969Z,20.5
2023-04-09T11:13:11.708Z,20.9
2023-04-09T11:15:59.289Z,21.4
2023-04-09T11:18:47.009Z,22
2023-04-09T11:21:35.813Z,22.4
2023-04-09T11:24:23.673Z,22.1
2023-04-09T11:27:11.270Z,21.8
2023-04-09T11:29:59.011Z,21.7
2023-04-09T11:32:47.011Z,22
2023-04-09T11:35:34.840Z,22.5
2023-04-09T11:38:22.718Z,22.4
2023-04-09T11:41:10.680Z,21.9
2023-04-09T11:43:58.333Z,21.8
2023-04-09T11:46:46.234Z,22.1
2023-04-09T11:49:34.057Z,22.1
2023-04-09T11:52:21.836Z,21.5
2023-04-09T11:55:09.480Z,21.1
2023-04-09T11:57:57.280Z,21
2023-04-09T12:00:45.240Z,20.8
2023-04-09T12:03:34.155Z,20.8
2023-04-09T12:06:22.242Z,20.5
2023-04-09T12:09:09.923Z,19.9
2023-04-09T12:11:57.666Z,19
2023-04-09T12:14:45.566Z,18.4
2023-04-09T12:17:33.411Z,18
2023-04-09T12:20:21.264Z,17.7
2023-04-09T12:23:08.992Z,18
2023-04-09T12:25:56.731Z,18.7
2023-04-09T12:28:44.558Z,18.9
2023-04-09T12:31:32.355Z,18.3
2023-04-09T12:34:20.140Z,17.8
2023-04-09T12:37:07.862Z,17.5
2023-04-09T12:39:55.639Z,17.5
2023-04-09T12:42:43.424Z,17.6
2023-04-09T12:45:31.165Z,17.5
2023-04-09T12:48:18.917Z,17.3
2023-04-09T12:51:06.721Z,17.1
2023-04-09T12:53:54.628Z,17
2023-04-09T12:56:42.962Z,17
2023-04-09T12:59:30.654Z,17
2023-04-09T13:02:18.858Z,17.2
2023-04-09T13:05:07.199Z,17.4
2023-04-09T13:07:55.158Z,17.8
2023-04-09T13:10:42.997Z,17.5
2023-04-09T13:13:30.881Z,17.2
2023-04-09T13:16:18.719Z,16.9
2023-04-09T13:19:06.438Z,16.5
2023-04-09T13:21:54.202Z,16.4
2023-04-09T13:24:42.064Z,16.4
2023-04-09T13:27:29.850Z,16.5
2023-04-09T13:30:17.758Z,16.4
2023-04-09T13:33:05.717Z,16.4
2023-04-09T13:35:53.780Z,16.5
2023-04-09T13:38:41.728Z,16.4
2023-04-09T13:41:31.403Z,16.1
2023-04-09T13:44:19.676Z,16
2023-04-09T13:47:07.715Z,15.8
2023-04-09T13:49:55.390Z,15.6
2023-04-09T13:52:43.332Z,15.5
2023-04-09T13:55:31.064Z,15.6
2023-04-09T13:58:18.942Z,15.5
2023-04-09T14:01:07.934Z,15.4
2023-04-09T14:03:56.551Z,15.3
2023-04-09T14:06:44.806Z,15
2023-04-09T14:09:32.529Z,15
2023-04-09T14:12:20.654Z,15
2023-04-09T14:15:08.722Z,15
2023-04-09T14:17:56.458Z,15
2023-04-09T14:20:44.482Z,15
2023-04-09T14:23:32.062Z,15.3
2023-04-09T14:26:20.350Z,15.9
2023-04-09T14:29:11.187Z,16.7
2023-04-09T14:31:59.151Z,17.3
2023-04-09T14:34:46.849Z,17.6
2023-04-09T14:37:34.663Z,17.3
2023-04-09T14:40:22.346Z,16.7
2023-04-09T14:43:10.031Z,16.1
2023-04-09T14:46:00.600Z,15.8
2023-04-09T14:48:48.466Z,15.7
2023-04-09T14:51:36.194Z,15.6
2023-04-09T14:54:23.976Z,15.7
2023-04-09T14:57:11.615Z,16.5
2023-04-09T14:59:59.392Z,17.4
2023-04-09T15:02:47.417Z,17.6
2023-04-09T15:05:36.084Z,17.8
2023-04-09T15:08:23.767Z,17.8
2023-04-09T15:11:11.478Z,18
2023-04-09T15:13:59.083Z,17.8
2023-04-09T15:16:46.814Z,17.8
2023-04-09T15:19:34.637Z,17.8
2023-04-09T15:22:22.475Z,17.9
2023-04-09T15:25:10.726Z,17.8
2023-04-09T15:28:01.890Z,17.8
2023-04-09T15:30:49.720Z,17.6
2023-04-09T15:33:37.451Z,17.4
2023-04-09T15:36:25.264Z,17.2
2023-04-09T15:39:12.976Z,16.9
2023-04-09T15:42:00.601Z,16.5
2023-04-09T15:44:48.422Z,16.3
2023-04-09T15:47:36.015Z,16.7
2023-04-09T15:50:23.788Z,17.2
2023-04-09T15:53:11.540Z,17.6
2023-04-09T15:55:59.357Z,18
2023-04-09T15:58:47.165Z,18.2
2023-04-09T16:01:34.996Z,18.3
2023-04-09T16:04:23.240Z,18.3
2023-04-09T16:07:11.102Z,18.1
2023-04-09T16:09:58.856Z,17.7
2023-04-09T16:12:46.823Z,17
2023-04-09T16:15:34.555Z,16.4
2023-04-09T16:18:22.404Z,15.8
2023-04-09T16:21:10.232Z,15.5
2023-04-09T16:23:59.032Z,15.6
2023-04-09T16:26:46.788Z,15.6
2023-04-09T16:29:34.547Z,15.6
2023-04-09T16:32:22.394Z,15.6
2023-04-09T16:35:10.366Z,15.7
2023-04-09T16:37:57.991Z,15.6
2023-04-09T16:40:45.718Z,15.6
2023-04-09T16:43:33.490Z,15.5
2023-04-09T16:46:21.385Z,15.5
2023-04-09T16:49:09.321Z,15.5
2023-04-09T16:51:57.074Z,15.5
2023-04-09T16:54:44.794Z,15.4
2023-04-09T16:57:32.780Z,15.2
2023-04-09T17:00:20.542Z,15
2023-04-09T17:03:08.505Z,14.7
2023-04-09T17:05:56.291Z,14.5
2023-04-09T17:08:44.023Z,14.3
2023-04-09T17:11:31.537Z,14.2
2023-04-09T17:14:19.233Z,14.1
2023-04-09T17:17:07.264Z,14
2023-04-09T17:19:55.259Z,13.9
2023-04-09T17:22:42.936Z,13.8
2023-04-09T17:25:30.851Z,13.7
2023-04-09T17:28:19.108Z,13.6
2023-04-09T17:31:06.941Z,13.5
2023-04-09T17:33:54.923Z,13.5
2023-04-09T17:36:42.928Z,13.4
2023-04-09T17:39:30.631Z,13.3
2023-04-09T17:42:18.443Z,13.3
2023-04-09T17:45:06.079Z,13.1
2023-04-09T17:47:53.952Z,13.1
2023-04-09T17:50:42.022Z,13
2023-04-09T17:53:29.792Z,12.9
2023-04-09T17:56:17.506Z,12.8
2023-04-09T17:59:05.300Z,12.7
2023-04-09T18:01:53.258Z,12.6
2023-04-09T18:04:41.923Z,12.5
2023-04-09T18:07:30.206Z,12.5
2023-04-09T18:10:17.998Z,12.5
2023-04-09T18:13:05.590Z,12.3
2023-04-09T18:15:53.451Z,12.3
2023-04-09T18:18:41.171Z,12.2
2023-04-09T18:21:28.940Z,12.2
2023-04-09T18:24:16.654Z,12.1
2023-04-09T18:27:04.610Z,12
2023-04-09T18:29:52.269Z,11.9
2023-04-09T18:32:40.106Z,11.9
2023-04-09T18:35:27.860Z,11.8
2023-04-09T18:38:15.615Z,11.8
2023-04-09T18:41:03.221Z,11.7
2023-04-09T18:43:50.908Z,11.7
2023-04-09T18:46:38.747Z,11.7
2023-04-09T18:49:26.567Z,11.7
2023-04-09T18:52:14.222Z,11.7
2023-04-09T18:55:01.887Z,11.7
2023-04-09T18:57:49.643Z,11.6
2023-04-09T19:00:37.502Z,11.5
2023-04-09T19:03:26.664Z,11.5
2023-04-09T19:06:18.594Z,11.4
2023-04-09T19:09:06.740Z,11.4
2023-04-09T19:11:54.479Z,11.3
2023-04-09T19:14:42.171Z,11.3
2023-04-09T19:17:29.900Z,11.1
2023-04-09T19:20:17.798Z,11.1
2023-04-09T19:23:05.508Z,11
2023-04-09T19:25:53.338Z,11
2023-04-09T19:28:41.075Z,10.9
2023-04-09T19:31:31.831Z,10.9
2023-04-09T19:34:19.869Z,10.8
2023-04-09T19:37:07.697Z,10.8
2023-04-09T19:39:55.431Z,10.7
2023-04-09T19:42:43.146Z,10.7
2023-04-09T19:45:30.896Z,10.6
2023-04-09T19:48:18.751Z,10.6
2023-04-09T19:51:06.559Z,10.6
2023-04-09T19:53:54.238Z,10.5
2023-04-09T19:56:41.924Z,10.5
2023-04-09T19:59:29.524Z,10.4
2023-04-09T20:02:17.277Z,10.3
2023-04-09T20:05:05.139Z,10.2
2023-04-09T20:07:52.964Z,10.1
2023-04-09T20:10:40.789Z,10
2023-04-09T20:13:28.463Z,10
2023-04-09T20:16:16.158Z,10
2023-04-09T20:19:04.032Z,10
2023-04-09T20:21:51.790Z,9.9
2023-04-09T20:24:39.655Z,9.8
2023-04-09T20:27:27.213Z,9.8
2023-04-09T20:30:14.959Z,9.8
2023-04-09T20:33:02.653Z,9.8
2023-04-09T20:35:50.648Z,9.8
2023-04-09T20:38:38.487Z,9.8
2023-04-09T20:41:26.315Z,9.7
2023-04-09T20:44:14.083Z,9.7
2023-04-09T20:47:01.965Z,9.7
2023-04-09T20:49:49.677Z,9.6
2023-04-09T20:52:37.854Z,9.6
2023-04-09T20:55:25.640Z,9.5
2023-04-09T20:58:13.363Z,9.5
2023-04-09T21:01:01.032Z,9.4
2023-04-09T21:03:49.040Z,9.3
2023-04-09T21:06:37.009Z,9.2
2023-04-09T21:09:26.907Z,9
2023-04-09T21:12:14.699Z,8.9
2023-04-09T21:15:02.604Z,8.9
2023-04-09T21:17:50.303Z,8.8
2023-04-09T21:20:38.179Z,8.8
2023-04-09T21:23:25.879Z,8.6
2023-04-09T21:26:13.598Z,8.6
2023-04-09T21:29:01.408Z,8.6
2023-04-09T21:31:49.249Z,8.6
2023-04-09T21:34:36.850Z,8.5
2023-04-09T21:37:24.685Z,8.5
2023-04-09T21:40:12.371Z,8.4
2023-04-09T21:42:59.996Z,8.4
2023-04-09T21:45:47.670Z,8.4
2023-04-09T21:48:35.461Z,8.4
2023-04-09T21:51:23.037Z,8.4
2023-04-09T21:54:10.621Z,8.4
2023-04-09T21:56:58.258Z,8.3
2023-04-09T21:59:45.836Z,8.3
2023-04-09T22:02:34.268Z,8.3
2023-04-09T22:05:22.410Z,8.2
2023-04-09T22:08:09.902Z,8.2
2023-04-09T22:10:57.585Z,8.2
2023-04-09T22:13:45.305Z,8.2
2023-04-09T22:16:33.147Z,8.2
2023-04-09T22:19:21.562Z,8.2
2023-04-09T22:22:09.323Z,8.3
2023-04-09T22:24:57.057Z,8.3
2023-04-09T22:27:44.790Z,8.3
2023-04-09T22:30:32.623Z,8.4
2023-04-09T22:33:20.511Z,8.4
2023-04-09T22:36:08.383Z,8.5
2023-04-09T22:38:56.318Z,8.5
2023-04-09T22:41:43.948Z,8.5
2023-04-09T22:44:31.676Z,8.5
2023-04-09T22:47:19.588Z,8.5
2023-04-09T22:50:07.454Z,8.5
2023-04-09T22:52:55.308Z,8.5
2023-04-09T22:55:42.967Z,8.4
2023-04-09T22:58:30.749Z,8.5
2023-04-09T23:01:18.530Z,8.5
2023-04-09T23:04:06.365Z,8.5
2023-04-09T23:06:53.989Z,8.5
2023-04-09T23:09:41.701Z,8.5
2023-04-09T23:12:29.612Z,8.5
2023-04-09T23:15:17.804Z,8.5
2023-04-09T23:18:05.789Z,8.5
2023-04-09T23:20:53.624Z,8.5
2023-04-09T23:23:41.560Z,8.5
2023-04-09T23:26:29.425Z,8.4
2023-04-09T23:29:17.243Z,8.5
2023-04-09T23:32:05.066Z,8.5
2023-04-09T23:34:52.951Z,8.5
2023-04-09T23:37:40.679Z,8.4
2023-04-09T23:40:28.465Z,8.4
2023-04-09T23:43:16.253Z,8.4
2023-04-09T23:46:04.038Z,8.4
2023-04-09T23:48:51.814Z,8.5
2023-04-09T23:51:39.546Z,8.5
2023-04-09T23:54:27.251Z,8.5
2023-04-09T23:57:15.121Z,8.5
